Csl Argosy — C6UZ9 — position and weather

sailwx.info

Track history (hours):
 
Tides and Currents Weather Stations Pressure Air Temp Water Temp Dewpoint Dewpoint Depression Visibility Wind Speed Wind Dir Waves Ship Positions

Csl Argosy

Last reported at 2016-Jan-31 07:17 UTC. Time now 2016-Feb-06 11:42 UTC.
Position N 28°59' W 093°32'.

Length 244 m; draft 10.8 m.

Type: Cargo ship. MMSI: 308299000.

Date/timePositionNaut miles runAvg speedWind from/ knotsBaromVisibWave heightAir tempDewpointWater temp
2016-Jan-31 07:17N 28°59' W 093°32'710.1
2016-Jan-31 06:33N 29°04' W 093°37'11 9.4
2016-Jan-31 05:25N 29°15' W 093°40'910.3
2016-Jan-31 04:33N 29°24' W 093°40'8 8.4
2016-Jan-31 03:33N 29°32' W 093°43'1110.5
2016-Jan-31 02:33N 29°40' W 093°50'8 8.2
2016-Jan-31 01:33N 29°46' W 093°56'7 6.6
2016-Jan-31 00:33N 29°53' W 093°55'6 6.4
2016-Jan-30 23:33N 29°59' W 093°52'7 6.1
2016-Jan-30 22:29N 30°01' W 093°59'5 5.1
2016-Jan-30 21:33N 30°04' W 094°03'2 0.1
2016-Jan-30 05:11N 30°05' W 094°05'0 0.0
2016-Jan-30 04:26N 30°05' W 094°05'0 0.0
2016-Jan-30 03:32N 30°05' W 094°05'0 0.0
2016-Jan-30 02:29N 30°05' W 094°05'0 0.0
2016-Jan-30 00:23N 30°05' W 094°05'0 0.0
2016-Jan-29 16:08N 30°05' W 094°05'0 0.3
2016-Jan-29 15:33N 30°05' W 094°05'4 3.8
2016-Jan-29 14:33N 30°02' W 094°02'4 4.4
2016-Jan-29 13:33N 30°00' W 093°57'5 5.4
2016-Jan-29 12:33N 29°58' W 093°51'6 5.8
2016-Jan-29 11:33N 29°53' W 093°55'6 5.7
2016-Jan-29 10:33N 29°48' W 093°57'7 7.0
2016-Jan-29 09:33N 29°43' W 093°51'8 8.5
2016-Jan-29 08:33N 29°35' W 093°47'10 9.8
2016-Jan-29 07:33N 29°28' W 093°40'7 6.6
2016-Jan-29 06:33N 29°21' W 093°39'6 5.8
2016-Jan-29 05:33N 29°15' W 093°39'7 6.6
2016-Jan-29 04:33N 29°09' W 093°39'9 8.6
2016-Jan-29 03:33N 29°02' W 093°34'  
2016-Jan-25 17:29N 20°34' W 087°08'0 0.0
2016-Jan-25 16:29N 20°34' W 087°08'0 0.0
2016-Jan-25 15:32N 20°34' W 087°08'0 0.0
2016-Jan-25 14:26N 20°34' W 087°08'1 1.7
2016-Jan-25 13:33N 20°35' W 087°06'4 3.8
2016-Jan-25 12:33N 20°37' W 087°03'5 4.6
2016-Jan-25 11:33N 20°39' W 086°58'7 6.9
2016-Jan-25 10:33N 20°41' W 086°51'  
Track history (hours):
 
Tides and Currents Weather Stations Pressure Air Temp Water Temp Dewpoint Dewpoint Depression Visibility Wind Speed Wind Dir Waves Ship Positions

Csl Argosy

Last reported at 2016-Jan-31 07:17 UTC. Time now 2016-Feb-06 11:42 UTC.
Position N 28°59' W 093°32'.

Length 244 m; draft 10.8 m.

Type: Cargo ship. MMSI: 308299000.

Date/timePositionNaut miles runAvg speedWind from/ knotsBaromVisibWave heightAir tempDewpointWater temp
2016-Jan-31 07:17N 28°59' W 093°32'710.1
2016-Jan-31 06:33N 29°04' W 093°37'11 9.4
2016-Jan-31 05:25N 29°15' W 093°40'910.3
2016-Jan-31 04:33N 29°24' W 093°40'8 8.4
2016-Jan-31 03:33N 29°32' W 093°43'1110.5
2016-Jan-31 02:33N 29°40' W 093°50'8 8.2
2016-Jan-31 01:33N 29°46' W 093°56'7 6.6
2016-Jan-31 00:33N 29°53' W 093°55'6 6.4
2016-Jan-30 23:33N 29°59' W 093°52'7 6.1
2016-Jan-30 22:29N 30°01' W 093°59'5 5.1
2016-Jan-30 21:33N 30°04' W 094°03'2 0.1
2016-Jan-30 05:11N 30°05' W 094°05'0 0.0
2016-Jan-30 04:26N 30°05' W 094°05'0 0.0
2016-Jan-30 03:32N 30°05' W 094°05'0 0.0
2016-Jan-30 02:29N 30°05' W 094°05'0 0.0
2016-Jan-30 00:23N 30°05' W 094°05'0 0.0
2016-Jan-29 16:08N 30°05' W 094°05'0 0.3
2016-Jan-29 15:33N 30°05' W 094°05'4 3.8
2016-Jan-29 14:33N 30°02' W 094°02'4 4.4
2016-Jan-29 13:33N 30°00' W 093°57'5 5.4
2016-Jan-29 12:33N 29°58' W 093°51'6 5.8
2016-Jan-29 11:33N 29°53' W 093°55'6 5.7
2016-Jan-29 10:33N 29°48' W 093°57'7 7.0
2016-Jan-29 09:33N 29°43' W 093°51'8 8.5
2016-Jan-29 08:33N 29°35' W 093°47'10 9.8
2016-Jan-29 07:33N 29°28' W 093°40'7 6.6
2016-Jan-29 06:33N 29°21' W 093°39'6 5.8
2016-Jan-29 05:33N 29°15' W 093°39'7 6.6
2016-Jan-29 04:33N 29°09' W 093°39'9 8.6
2016-Jan-29 03:33N 29°02' W 093°34'  
2016-Jan-25 17:29N 20°34' W 087°08'0 0.0
2016-Jan-25 16:29N 20°34' W 087°08'0 0.0
2016-Jan-25 15:32N 20°34' W 087°08'0 0.0
2016-Jan-25 14:26N 20°34' W 087°08'1 1.7
2016-Jan-25 13:33N 20°35' W 087°06'4 3.8
2016-Jan-25 12:33N 20°37' W 087°03'5 4.6
2016-Jan-25 11:33N 20°39' W 086°58'7 6.9
2016-Jan-25 10:33N 20°41' W 086°51'  

Dump ship's entire track history